createdAt,value
2019-03-10T09:42:30.807Z,17.70
2019-03-10T09:43:30.700Z,17.77
2019-03-10T09:45:26.039Z,17.78
2019-03-10T09:46:25.894Z,17.87
2019-03-10T09:48:20.149Z,17.89
2019-03-10T09:49:20.065Z,18.02
2019-03-10T09:51:15.154Z,18.03
2019-03-10T09:52:15.075Z,18.15
2019-03-10T09:54:09.339Z,18.29
2019-03-10T09:55:09.238Z,18.33
2019-03-10T09:57:04.506Z,18.39
2019-03-10T09:58:04.425Z,18.37
2019-03-10T10:00:00.511Z,18.30
2019-03-10T10:01:00.425Z,18.26
2019-03-10T10:02:54.702Z,18.08
2019-03-10T10:03:54.597Z,18.08
2019-03-10T10:05:48.996Z,18.15
2019-03-10T10:06:48.901Z,18.21
2019-03-10T10:08:45.317Z,18.35
2019-03-10T10:09:44.099Z,18.39
2019-03-10T10:11:39.405Z,18.62
2019-03-10T10:12:39.291Z,18.62
2019-03-10T10:14:34.585Z,18.60
2019-03-10T10:15:34.500Z,18.51
2019-03-10T10:17:29.860Z,18.57
2019-03-10T10:18:29.755Z,18.60
2019-03-10T10:20:24.023Z,18.63
2019-03-10T10:21:23.940Z,18.63
2019-03-10T10:23:19.243Z,18.73
2019-03-10T10:24:19.141Z,18.82
2019-03-10T10:26:14.412Z,18.81
2019-03-10T10:27:14.332Z,18.84
2019-03-10T10:29:08.677Z,18.82
2019-03-10T10:30:08.584Z,18.91
2019-03-10T10:32:03.849Z,18.98
2019-03-10T10:33:03.779Z,18.99
2019-03-10T10:34:58.039Z,19.21
2019-03-10T10:35:57.944Z,19.16
2019-03-10T10:37:52.225Z,19.14
2019-03-10T10:38:52.140Z,19.07
2019-03-10T10:40:46.412Z,19.11
2019-03-10T10:41:46.339Z,19.06
2019-03-10T10:43:41.602Z,19.14
2019-03-10T10:44:41.513Z,19.22
2019-03-10T10:46:35.762Z,19.31
2019-03-10T10:47:35.684Z,19.25
2019-03-10T10:49:30.075Z,19.28
2019-03-10T10:50:29.894Z,19.31
2019-03-10T10:52:24.186Z,19.31
2019-03-10T10:53:24.078Z,19.39
2019-03-10T10:55:19.395Z,19.37
2019-03-10T10:56:19.287Z,19.32
2019-03-10T10:58:13.566Z,19.08
2019-03-10T10:59:13.483Z,19.22
2019-03-10T11:01:09.935Z,18.99
2019-03-10T11:02:07.677Z,18.92
2019-03-10T11:04:02.786Z,19.02
2019-03-10T11:05:02.698Z,19.11
2019-03-10T11:06:56.979Z,19.21
2019-03-10T11:07:56.878Z,19.28
2019-03-10T11:09:51.146Z,19.26
2019-03-10T11:10:51.062Z,19.39
2019-03-10T11:12:45.328Z,19.36
2019-03-10T11:13:45.243Z,19.47
2019-03-10T11:15:39.522Z,19.54
2019-03-10T11:16:39.429Z,19.50
2019-03-10T11:18:34.594Z,19.59
2019-03-10T11:19:34.510Z,19.63
2019-03-10T11:21:28.797Z,19.44
2019-03-10T11:22:28.723Z,19.56
2019-03-10T11:24:23.834Z,19.47
2019-03-10T11:25:23.787Z,19.48
2019-03-10T11:27:19.036Z,19.47
2019-03-10T11:28:18.951Z,19.55
2019-03-10T11:30:14.068Z,19.47
2019-03-10T11:31:14.165Z,19.48
2019-03-10T11:33:09.293Z,19.51
2019-03-10T11:34:09.201Z,19.47
2019-03-10T11:36:03.460Z,19.51
2019-03-10T11:37:03.385Z,19.51
2019-03-10T11:38:57.651Z,19.54
2019-03-10T11:39:57.601Z,19.54
2019-03-10T11:41:51.849Z,19.59
2019-03-10T11:42:51.758Z,19.66
2019-03-10T11:44:47.069Z,19.65
2019-03-10T11:45:46.973Z,19.68
2019-03-10T11:47:41.387Z,19.58
2019-03-10T11:48:41.310Z,19.68
2019-03-10T11:50:35.564Z,19.65
2019-03-10T11:51:35.476Z,19.61
2019-03-10T11:53:29.752Z,19.51
2019-03-10T11:54:29.681Z,19.48
2019-03-10T11:56:23.940Z,19.56
2019-03-10T11:57:23.848Z,19.56
2019-03-10T11:59:18.111Z,19.68
2019-03-10T12:00:18.040Z,19.61
2019-03-10T12:02:16.410Z,19.63
2019-03-10T12:03:12.198Z,19.62
2019-03-10T12:05:06.481Z,19.69
2019-03-10T12:06:06.390Z,19.66
2019-03-10T12:08:01.675Z,19.76
2019-03-10T12:09:01.599Z,19.63
2019-03-10T12:10:56.875Z,19.76
2019-03-10T12:11:56.785Z,19.71
2019-03-10T12:13:52.052Z,19.77
2019-03-10T12:14:51.960Z,19.76
2019-03-10T12:16:46.246Z,19.77
2019-03-10T12:17:46.171Z,19.73
2019-03-10T12:19:41.448Z,19.84
2019-03-10T12:20:41.371Z,19.87
2019-03-10T12:22:36.645Z,19.76
2019-03-10T12:23:36.566Z,19.77
2019-03-10T12:25:31.828Z,19.78
2019-03-10T12:26:31.761Z,19.87
2019-03-10T12:28:27.027Z,19.80
2019-03-10T12:29:26.963Z,19.80
2019-03-10T12:31:22.214Z,19.88
2019-03-10T12:32:22.140Z,19.87
2019-03-10T12:34:17.444Z,20.03
2019-03-10T12:35:17.361Z,20.05
2019-03-10T12:37:12.630Z,20.05
2019-03-10T12:38:12.556Z,19.96
2019-03-10T12:40:07.842Z,20.03
2019-03-10T12:41:07.749Z,20.02
2019-03-10T12:43:03.041Z,20.03
2019-03-10T12:44:02.950Z,20.01
2019-03-10T12:45:58.222Z,20.13
2019-03-10T12:46:58.142Z,20.11
2019-03-10T12:48:53.416Z,20.13
2019-03-10T12:49:53.328Z,20.14
2019-03-10T12:51:48.615Z,20.23
2019-03-10T12:52:48.508Z,20.26
2019-03-10T12:54:45.282Z,20.16
2019-03-10T12:55:45.200Z,20.29
2019-03-10T12:57:40.493Z,20.23
2019-03-10T12:58:40.406Z,20.23
2019-03-10T13:00:35.719Z,20.32
2019-03-10T13:01:35.607Z,20.29
2019-03-10T13:03:30.915Z,20.33
2019-03-10T13:04:30.832Z,20.35
2019-03-10T13:06:26.997Z,20.42
2019-03-10T13:07:26.899Z,20.35
2019-03-10T13:09:22.161Z,20.43
2019-03-10T13:10:22.080Z,20.51
2019-03-10T13:12:17.368Z,20.48
2019-03-10T13:13:17.278Z,20.32
2019-03-10T13:15:12.552Z,20.43
2019-03-10T13:16:12.613Z,20.52
2019-03-10T13:18:07.761Z,20.47
2019-03-10T13:19:07.673Z,20.54
2019-03-10T13:21:02.934Z,20.61
2019-03-10T13:22:02.861Z,20.69
2019-03-10T13:23:58.145Z,20.76
2019-03-10T13:24:58.053Z,20.72
2019-03-10T13:26:53.330Z,20.67
2019-03-10T13:27:53.251Z,20.64
2019-03-10T13:29:48.528Z,20.66
2019-03-10T13:30:48.440Z,20.62
2019-03-10T13:32:44.568Z,20.67
2019-03-10T13:33:43.639Z,20.64
2019-03-10T13:35:37.908Z,20.51
2019-03-10T13:36:37.827Z,20.55
2019-03-10T13:38:33.104Z,20.52
2019-03-10T13:39:33.012Z,20.54
2019-03-10T13:41:28.305Z,20.55
2019-03-10T13:42:28.215Z,20.57
2019-03-10T13:44:24.843Z,20.57
2019-03-10T13:45:23.413Z,20.59
2019-03-10T13:47:18.692Z,20.64
2019-03-10T13:48:18.596Z,20.61
2019-03-10T13:50:13.890Z,20.61
2019-03-10T13:51:13.807Z,20.61
2019-03-10T13:53:08.067Z,20.61
2019-03-10T13:54:07.981Z,20.57
2019-03-10T13:56:03.250Z,20.67
2019-03-10T13:57:03.172Z,20.64
2019-03-10T13:58:58.445Z,20.55
2019-03-10T13:59:58.362Z,20.58
2019-03-10T14:01:53.711Z,20.64
2019-03-10T14:02:53.552Z,20.64
2019-03-10T14:04:48.829Z,20.64
2019-03-10T14:05:48.742Z,20.70
2019-03-10T14:07:43.014Z,20.57
2019-03-10T14:08:42.930Z,20.51
2019-03-10T14:10:37.202Z,20.62
2019-03-10T14:11:37.123Z,20.64
2019-03-10T14:13:32.386Z,20.69
2019-03-10T14:14:32.310Z,20.64
2019-03-10T14:16:26.580Z,20.69
2019-03-10T14:17:26.462Z,20.64
2019-03-10T14:19:20.718Z,20.70
2019-03-10T14:20:20.652Z,20.67
2019-03-10T14:22:15.933Z,20.69
2019-03-10T14:23:15.842Z,20.67
2019-03-10T14:25:10.105Z,20.74
2019-03-10T14:26:10.012Z,20.73
2019-03-10T14:28:04.309Z,20.69
2019-03-10T14:29:04.225Z,20.70
2019-03-10T14:30:58.491Z,20.58
2019-03-10T14:31:58.409Z,20.57
2019-03-10T14:33:52.724Z,20.54
2019-03-10T14:34:52.630Z,20.58
2019-03-10T14:36:46.898Z,20.59
2019-03-10T14:37:46.802Z,20.61
2019-03-10T14:39:41.085Z,20.57
2019-03-10T14:40:41.000Z,20.66
2019-03-10T14:42:35.248Z,20.47
2019-03-10T14:43:35.183Z,20.48
2019-03-10T14:45:29.472Z,20.31
2019-03-10T14:46:29.370Z,20.32
2019-03-10T14:48:23.621Z,20.29
2019-03-10T14:49:23.836Z,20.32
2019-03-10T14:51:17.810Z,20.24
2019-03-10T14:52:17.724Z,20.33
2019-03-10T14:54:11.982Z,20.36
2019-03-10T14:55:11.883Z,20.39
2019-03-10T14:57:06.190Z,20.38
2019-03-10T14:58:06.091Z,20.43
2019-03-10T15:00:00.400Z,20.28
2019-03-10T15:01:00.265Z,20.35
2019-03-10T15:02:54.532Z,20.21
2019-03-10T15:03:54.436Z,20.33
2019-03-10T15:05:48.731Z,20.26
2019-03-10T15:06:48.620Z,20.38
2019-03-10T15:08:46.231Z,20.28
2019-03-10T15:09:43.809Z,20.14
2019-03-10T15:11:38.089Z,20.20
2019-03-10T15:12:38.005Z,20.32
2019-03-10T15:14:32.264Z,20.23
2019-03-10T15:15:32.197Z,20.35
2019-03-10T15:17:26.462Z,20.38
2019-03-10T15:18:26.359Z,20.39
2019-03-10T15:20:21.735Z,20.41
2019-03-10T15:21:20.547Z,20.47
2019-03-10T15:23:15.690Z,20.47
2019-03-10T15:24:15.601Z,20.51
2019-03-10T15:26:09.840Z,20.41
2019-03-10T15:27:09.768Z,20.38
2019-03-10T15:29:04.041Z,20.41
2019-03-10T15:30:03.942Z,20.28
2019-03-10T15:31:58.211Z,20.36
2019-03-10T15:32:58.152Z,20.33
2019-03-10T15:34:52.383Z,20.42
2019-03-10T15:35:52.318Z,20.39
2019-03-10T15:37:46.563Z,20.35
2019-03-10T15:38:46.460Z,20.29
2019-03-10T15:40:40.716Z,20.21
2019-03-10T15:41:40.646Z,20.21
2019-03-10T15:43:35.748Z,20.31
2019-03-10T15:44:35.667Z,20.31
2019-03-10T15:46:30.099Z,20.31
2019-03-10T15:47:30.007Z,20.33
2019-03-10T15:49:24.292Z,20.26
2019-03-10T15:50:24.200Z,20.23
2019-03-10T15:52:18.453Z,20.35
2019-03-10T15:53:18.375Z,20.36
2019-03-10T15:55:12.667Z,20.33
2019-03-10T15:56:12.561Z,20.38
2019-03-10T15:58:06.886Z,20.39
2019-03-10T15:59:06.826Z,20.41
2019-03-10T16:01:03.973Z,20.31
2019-03-10T16:02:01.755Z,20.26
2019-03-10T16:03:56.043Z,20.21
2019-03-10T16:04:55.948Z,20.16
2019-03-10T16:06:50.214Z,20.20
2019-03-10T16:07:50.129Z,20.16
2019-03-10T16:09:44.417Z,20.14
2019-03-10T16:10:45.099Z,20.23
2019-03-10T16:12:38.568Z,20.13
2019-03-10T16:13:38.492Z,20.16
2019-03-10T16:15:32.780Z,20.20
2019-03-10T16:16:32.680Z,20.16
2019-03-10T16:18:26.959Z,20.10
2019-03-10T16:19:26.863Z,20.18
2019-03-10T16:21:21.139Z,20.14
2019-03-10T16:22:21.049Z,20.10
2019-03-10T16:24:15.338Z,20.13
2019-03-10T16:25:15.231Z,20.14
2019-03-10T16:27:13.056Z,20.16
2019-03-10T16:28:12.964Z,20.14
2019-03-10T16:29:12.890Z,20.13
2019-03-10T16:30:12.828Z,20.13
2019-03-10T16:31:12.769Z,20.14
2019-03-10T16:32:12.709Z,20.21
2019-03-10T16:33:12.635Z,20.14
2019-03-10T16:34:12.566Z,20.14
2019-03-10T16:35:12.494Z,20.21
2019-03-10T16:36:12.418Z,20.10
2019-03-10T16:37:12.355Z,20.13
2019-03-10T16:38:12.294Z,20.14
2019-03-10T16:39:12.237Z,20.06
2019-03-10T16:40:12.173Z,20.05
2019-03-10T16:41:12.098Z,20.13
2019-03-10T16:42:13.788Z,20.02
2019-03-10T16:43:11.959Z,20.03
2019-03-10T16:44:11.890Z,20.01
2019-03-10T16:45:11.837Z,20.02
2019-03-10T16:46:11.770Z,19.98
2019-03-10T16:47:11.686Z,19.95
2019-03-10T16:48:11.625Z,20.02
2019-03-10T16:49:11.558Z,19.99
2019-03-10T16:50:11.495Z,20.03
2019-03-10T16:51:11.439Z,19.96
2019-03-10T16:52:12.197Z,19.94
2019-03-10T16:53:11.285Z,19.99
2019-03-10T16:54:11.221Z,19.99
2019-03-10T16:55:11.165Z,19.91
2019-03-10T16:56:11.097Z,19.84
2019-03-10T16:57:11.032Z,19.77
2019-03-10T16:58:10.965Z,19.71
2019-03-10T16:59:10.889Z,19.65
2019-03-10T17:00:10.830Z,19.74
2019-03-10T17:01:10.773Z,19.73
2019-03-10T17:02:10.714Z,19.62
2019-03-10T17:03:10.620Z,19.59
2019-03-10T17:04:10.553Z,19.59
2019-03-10T17:05:10.498Z,19.66
2019-03-10T17:06:10.429Z,19.62
2019-03-10T17:07:10.366Z,19.62
2019-03-10T17:08:10.292Z,19.51
2019-03-10T17:09:10.227Z,19.54
2019-03-10T17:10:10.156Z,19.47
2019-03-10T17:11:10.081Z,19.51
2019-03-10T17:12:10.018Z,19.47
2019-03-10T17:13:09.948Z,19.48
2019-03-10T17:14:09.891Z,19.41
2019-03-10T17:15:09.828Z,19.36
2019-03-10T17:16:09.773Z,19.37
2019-03-10T17:17:09.674Z,19.39
2019-03-10T17:18:09.619Z,19.26
2019-03-10T17:19:09.805Z,19.21
2019-03-10T17:20:09.490Z,19.28
2019-03-10T17:21:09.418Z,19.22
2019-03-10T17:22:09.351Z,19.21
2019-03-10T17:23:09.277Z,19.21
2019-03-10T17:24:09.203Z,19.18
2019-03-10T17:25:09.135Z,19.18
2019-03-10T17:26:09.067Z,19.26
2019-03-10T17:27:09.011Z,19.22
2019-03-10T17:28:08.945Z,19.31
2019-03-10T17:29:08.876Z,19.31
2019-03-10T17:30:08.813Z,19.23
2019-03-10T17:31:08.787Z,19.07
2019-03-10T17:32:08.662Z,19.04
2019-03-10T17:33:08.606Z,19.04
2019-03-10T17:34:08.543Z,19.07
2019-03-10T17:35:08.460Z,19.06
2019-03-10T17:36:08.389Z,19.06
2019-03-10T17:37:08.323Z,19.11
2019-03-10T17:38:08.257Z,19.10
2019-03-10T17:39:08.205Z,19.04
2019-03-10T17:40:08.132Z,19.02
2019-03-10T17:41:08.070Z,18.98
2019-03-10T17:42:08.001Z,19.00
2019-03-10T17:43:08.164Z,18.91
2019-03-10T17:44:07.853Z,18.78
2019-03-10T17:45:07.781Z,18.81
2019-03-10T17:46:07.717Z,18.87
2019-03-10T17:47:07.656Z,18.85
2019-03-10T17:48:07.598Z,18.98
2019-03-10T17:49:07.513Z,18.88
2019-03-10T17:50:07.444Z,18.98
2019-03-10T17:51:07.390Z,18.99
2019-03-10T17:52:14.292Z,18.95
2019-03-10T17:53:07.653Z,18.81
2019-03-10T17:54:07.183Z,18.73
2019-03-10T17:55:07.103Z,18.60
2019-03-10T17:56:07.038Z,18.50
2019-03-10T17:57:06.986Z,18.50
2019-03-10T17:58:06.914Z,18.66
2019-03-10T17:59:06.837Z,18.60
2019-03-10T18:00:06.767Z,18.57
2019-03-10T18:01:06.697Z,18.62
2019-03-10T18:02:09.155Z,18.57
2019-03-10T18:03:06.577Z,18.52
2019-03-10T18:04:06.515Z,18.57
2019-03-10T18:05:06.642Z,18.39
2019-03-10T18:06:06.368Z,18.30
2019-03-10T18:07:06.310Z,18.33
2019-03-10T18:08:06.240Z,18.17
2019-03-10T18:09:06.247Z,18.12
2019-03-10T18:10:06.104Z,18.23
2019-03-10T18:11:06.027Z,18.26
2019-03-10T18:12:05.949Z,18.17
2019-03-10T18:13:05.881Z,18.17
2019-03-10T18:14:05.817Z,18.15
2019-03-10T18:15:08.918Z,18.23
2019-03-10T18:16:05.687Z,18.23
2019-03-10T18:17:05.624Z,18.07
2019-03-10T18:18:05.552Z,18.05
2019-03-10T18:19:05.485Z,18.05
2019-03-10T18:20:05.405Z,18.10
2019-03-10T18:21:05.346Z,18.00
2019-03-10T18:22:05.284Z,18.02
2019-03-10T18:23:05.195Z,18.10
2019-03-10T18:24:05.133Z,18.02
2019-03-10T18:25:05.057Z,17.99
2019-03-10T18:26:04.993Z,18.03
2019-03-10T18:27:04.936Z,18.08
2019-03-10T18:28:06.220Z,17.97
2019-03-10T18:29:04.801Z,18.07
2019-03-10T18:30:04.735Z,18.07
2019-03-10T18:31:04.652Z,17.99
2019-03-10T18:32:04.589Z,17.95
2019-03-10T18:33:04.513Z,17.92
2019-03-10T18:34:04.445Z,17.97
2019-03-10T18:35:04.389Z,18.03
2019-03-10T18:36:04.321Z,17.93
2019-03-10T18:37:04.243Z,17.92
2019-03-10T18:38:04.171Z,17.79
2019-03-10T18:39:04.139Z,17.82
2019-03-10T18:40:04.054Z,17.82
2019-03-10T18:41:03.988Z,17.79
2019-03-10T18:42:03.907Z,17.79
2019-03-10T18:43:03.833Z,17.84
2019-03-10T18:44:03.763Z,17.82
2019-03-10T18:45:03.698Z,17.86
2019-03-10T18:46:03.629Z,17.78
2019-03-10T18:47:03.574Z,17.78
2019-03-10T18:48:03.507Z,17.70
2019-03-10T18:49:03.432Z,17.63
2019-03-10T18:50:03.370Z,17.63
2019-03-10T18:51:03.283Z,17.64
2019-03-10T18:52:03.220Z,17.63
2019-03-10T18:53:03.158Z,17.59
2019-03-10T18:54:03.099Z,17.63
2019-03-10T18:55:03.019Z,17.74
2019-03-10T18:56:02.945Z,17.79
2019-03-10T18:57:02.875Z,17.78
2019-03-10T18:58:02.817Z,17.81
2019-03-10T18:59:02.790Z,17.74
2019-03-10T19:00:02.681Z,17.64
2019-03-10T19:01:02.612Z,17.64
2019-03-10T19:02:02.541Z,17.81
2019-03-10T19:03:02.481Z,17.59
2019-03-10T19:04:02.407Z,17.79
2019-03-10T19:05:02.339Z,17.81
2019-03-10T19:06:02.266Z,17.79
2019-03-10T19:07:02.192Z,17.82
2019-03-10T19:08:02.119Z,17.74
2019-03-10T19:09:02.076Z,17.63
2019-03-10T19:10:02.078Z,17.64
2019-03-10T19:11:01.923Z,17.74
2019-03-10T19:12:01.853Z,17.70
2019-03-10T19:13:01.783Z,17.74
2019-03-10T19:14:01.713Z,17.79
2019-03-10T19:15:01.657Z,17.84
2019-03-10T19:16:01.594Z,17.86
2019-03-10T19:17:01.522Z,17.92
2019-03-10T19:18:01.453Z,17.78
2019-03-10T19:19:01.372Z,17.87
2019-03-10T19:20:01.308Z,17.84
2019-03-10T19:21:01.238Z,17.89
2019-03-10T19:22:01.171Z,17.84
2019-03-10T19:23:01.109Z,17.84
2019-03-10T19:24:01.042Z,17.86
2019-03-10T19:25:00.963Z,17.92
2019-03-10T19:26:00.899Z,17.86
2019-03-10T19:27:00.847Z,17.86
2019-03-10T19:28:00.778Z,17.81
2019-03-10T19:29:00.706Z,17.75
2019-03-10T19:30:00.633Z,17.77
2019-03-10T19:31:00.551Z,17.74
2019-03-10T19:32:00.487Z,17.81
2019-03-10T19:33:00.419Z,17.81
2019-03-10T19:34:00.353Z,17.72
2019-03-10T19:35:00.373Z,17.66
2019-03-10T19:36:00.337Z,17.66
2019-03-10T19:37:00.178Z,17.62
2019-03-10T19:38:00.088Z,17.77
2019-03-10T19:39:00.011Z,17.78
2019-03-10T19:39:59.945Z,17.59
2019-03-10T19:40:59.889Z,17.63
2019-03-10T19:41:59.815Z,17.63
2019-03-10T19:42:59.735Z,17.71
2019-03-10T19:43:59.669Z,17.56
2019-03-10T19:44:59.603Z,17.48
2019-03-10T19:45:59.537Z,17.48
2019-03-10T19:46:59.476Z,17.51
2019-03-10T19:47:59.410Z,17.55
2019-03-10T19:48:59.345Z,17.58
2019-03-10T19:49:59.275Z,17.64
2019-03-10T19:50:59.194Z,17.63
2019-03-10T19:51:59.123Z,17.64
2019-03-10T19:52:59.063Z,17.52
2019-03-10T19:53:58.999Z,17.52
2019-03-10T19:54:58.946Z,17.58
2019-03-10T19:55:58.866Z,17.46
2019-03-10T19:56:58.781Z,17.41
2019-03-10T19:57:58.713Z,17.36
2019-03-10T19:58:58.655Z,17.34
2019-03-10T19:59:58.587Z,17.40
2019-03-10T20:00:58.520Z,17.49
2019-03-10T20:01:58.452Z,17.54
2019-03-10T20:02:58.376Z,17.43
2019-03-10T20:03:58.307Z,17.43
2019-03-10T20:04:58.245Z,17.40
2019-03-10T20:05:58.178Z,17.36
2019-03-10T20:06:58.099Z,17.36
2019-03-10T20:07:58.031Z,17.26
2019-03-10T20:08:57.957Z,17.38
2019-03-10T20:09:57.889Z,17.36
2019-03-10T20:10:57.834Z,17.36
2019-03-10T20:11:57.772Z,17.37
2019-03-10T20:12:57.683Z,17.34
2019-03-10T20:13:57.618Z,17.30
2019-03-10T20:14:57.566Z,17.30
2019-03-10T20:15:57.499Z,17.22
2019-03-10T20:16:57.433Z,17.25
2019-03-10T20:17:57.354Z,17.22
2019-03-10T20:18:57.317Z,17.21
2019-03-10T20:19:57.205Z,17.19
2019-03-10T20:20:57.143Z,17.14
2019-03-10T20:21:57.073Z,17.22
2019-03-10T20:22:57.017Z,17.25
2019-03-10T20:23:56.947Z,17.19
2019-03-10T20:24:56.887Z,17.14
2019-03-10T20:25:56.819Z,17.11
2019-03-10T20:26:56.726Z,17.12
2019-03-10T20:27:56.666Z,17.12
2019-03-10T20:28:56.597Z,17.21
2019-03-10T20:29:56.532Z,17.15
2019-03-10T20:30:56.451Z,17.25
2019-03-10T20:31:56.386Z,17.26
2019-03-10T20:32:56.311Z,17.31
2019-03-10T20:33:56.247Z,17.23
2019-03-10T20:34:56.192Z,17.15
2019-03-10T20:35:56.151Z,17.18
2019-03-10T20:36:56.045Z,17.21
2019-03-10T20:37:55.975Z,17.18
2019-03-10T20:38:55.918Z,17.14
2019-03-10T20:39:55.847Z,17.21
2019-03-10T20:40:55.783Z,17.30
2019-03-10T20:42:04.677Z,17.16
2019-03-10T20:42:55.637Z,17.15
2019-03-10T20:43:55.561Z,17.11
2019-03-10T20:44:55.508Z,17.04
2019-03-10T20:45:55.440Z,17.16
2019-03-10T20:46:55.359Z,17.16
2019-03-10T20:47:56.739Z,17.19
2019-03-10T20:48:55.221Z,17.18
2019-03-10T20:49:55.151Z,17.14
2019-03-10T20:50:55.101Z,17.14
2019-03-10T20:51:55.029Z,17.14
2019-03-10T20:52:54.961Z,17.06
2019-03-10T20:53:54.955Z,17.07
2019-03-10T20:54:54.807Z,17.14
2019-03-10T20:55:54.752Z,17.08
2019-03-10T20:56:54.672Z,17.04
2019-03-10T20:57:54.603Z,17.06
2019-03-10T20:58:54.548Z,17.03
2019-03-10T21:00:00.521Z,17.03
2019-03-10T21:00:54.405Z,17.07
2019-03-10T21:01:54.330Z,17.07
2019-03-10T21:02:54.334Z,17.11
2019-03-10T21:03:54.225Z,17.23
2019-03-10T21:04:54.135Z,17.11
2019-03-10T21:05:54.067Z,17.06
2019-03-10T21:06:53.989Z,16.97
2019-03-10T21:07:53.920Z,16.89
2019-03-10T21:08:53.861Z,16.93
2019-03-10T21:09:53.794Z,16.89
2019-03-10T21:10:53.717Z,17.01
2019-03-10T21:11:53.649Z,16.91
2019-03-10T21:12:53.573Z,16.97
2019-03-10T21:13:53.506Z,16.88
2019-03-10T21:14:53.455Z,16.79
2019-03-10T21:15:53.381Z,16.88
2019-03-10T21:16:53.302Z,16.88
2019-03-10T21:17:53.234Z,16.98
2019-03-10T21:18:53.175Z,16.85
2019-03-10T21:19:53.105Z,16.86
2019-03-10T21:20:53.040Z,16.85
2019-03-10T21:21:52.972Z,16.89
2019-03-10T21:22:52.889Z,16.70
2019-03-10T21:23:55.214Z,16.78
2019-03-10T21:24:52.765Z,16.76
2019-03-10T21:25:52.690Z,16.75
2019-03-10T21:26:52.626Z,16.73
2019-03-10T21:27:52.570Z,16.73
2019-03-10T21:28:52.487Z,16.73
2019-03-10T21:29:52.420Z,16.73
2019-03-10T21:30:52.339Z,16.70
2019-03-10T21:31:52.270Z,16.67
2019-03-10T21:32:52.213Z,16.60
2019-03-10T21:33:52.152Z,16.67
2019-03-10T21:34:52.059Z,16.61
2019-03-10T21:35:51.994Z,16.64
2019-03-10T21:36:51.928Z,16.67
2019-03-10T21:37:51.855Z,16.75
2019-03-10T21:38:51.798Z,16.68
2019-03-10T21:39:51.737Z,16.71
2019-03-10T21:40:51.658Z,16.68
2019-03-10T21:41:51.600Z,16.63
2019-03-10T21:42:51.510Z,16.67
2019-03-10T21:43:51.640Z,16.70
2019-03-10T21:44:51.373Z,16.73
2019-03-10T21:45:51.300Z,16.64
2019-03-10T21:46:51.246Z,16.56
2019-03-10T21:47:51.178Z,16.49
2019-03-10T21:48:51.097Z,16.60
2019-03-10T21:49:51.026Z,16.64
2019-03-10T21:50:50.971Z,16.61
2019-03-10T21:51:50.918Z,16.67
2019-03-10T21:52:50.832Z,16.63
2019-03-10T21:53:50.768Z,16.71
2019-03-10T21:54:50.852Z,16.75
2019-03-10T21:55:50.616Z,16.71
2019-03-10T21:56:50.542Z,16.63
2019-03-10T21:57:50.531Z,16.71
2019-03-10T21:58:50.415Z,16.79
2019-03-10T21:59:50.349Z,16.75
2019-03-10T22:00:50.277Z,16.67
2019-03-10T22:01:50.216Z,16.73
2019-03-10T22:02:50.192Z,16.73
2019-03-10T22:03:50.085Z,16.70
2019-03-10T22:04:50.000Z,16.76
2019-03-10T22:05:49.935Z,16.73
2019-03-10T22:06:49.862Z,16.73
2019-03-10T22:07:49.785Z,16.75
2019-03-10T22:08:49.714Z,16.75
2019-03-10T22:09:49.646Z,16.71
2019-03-10T22:10:49.586Z,16.75
2019-03-10T22:11:49.519Z,16.76
2019-03-10T22:12:49.438Z,16.67
2019-03-10T22:13:49.370Z,16.64
2019-03-10T22:14:49.313Z,16.68
2019-03-10T22:15:49.246Z,16.73
2019-03-10T22:16:49.177Z,16.67
2019-03-10T22:17:49.106Z,16.71
2019-03-10T22:18:49.027Z,16.45
2019-03-10T22:19:48.954Z,16.45
2019-03-10T22:20:48.897Z,16.34
2019-03-10T22:21:48.902Z,16.39
2019-03-10T22:22:49.917Z,16.46
2019-03-10T22:23:58.781Z,16.42
2019-03-10T22:24:48.611Z,16.57
2019-03-10T22:25:48.542Z,16.58
2019-03-10T22:26:48.487Z,16.70
2019-03-10T22:27:48.415Z,16.75
2019-03-10T22:28:48.388Z,16.79
2019-03-10T22:29:48.276Z,16.66
2019-03-10T22:30:48.198Z,16.68
2019-03-10T22:31:48.129Z,16.64
2019-03-10T22:32:48.075Z,16.70
2019-03-10T22:33:48.000Z,16.68
2019-03-10T22:34:47.939Z,16.50
2019-03-10T22:35:47.874Z,16.46
2019-03-10T22:36:47.788Z,16.57
2019-03-10T22:37:47.785Z,16.57
2019-03-10T22:38:47.657Z,16.52
2019-03-10T22:39:47.590Z,16.56
2019-03-10T22:40:47.524Z,16.58
2019-03-10T22:41:47.461Z,16.57
2019-03-10T22:42:47.372Z,16.60
2019-03-10T22:43:47.302Z,16.52
2019-03-10T22:44:47.239Z,16.50
2019-03-10T22:45:47.172Z,16.64
2019-03-10T22:46:47.121Z,16.33
2019-03-10T22:47:47.045Z,16.24
2019-03-10T22:48:47.043Z,16.17
2019-03-10T22:49:46.904Z,16.20
2019-03-10T22:50:46.820Z,16.17
2019-03-10T22:51:46.752Z,16.34
2019-03-10T22:52:46.721Z,16.38
2019-03-10T22:53:46.626Z,16.38
2019-03-10T22:54:46.553Z,16.34
2019-03-10T22:55:46.482Z,16.30
2019-03-10T22:56:46.408Z,16.20
2019-03-10T22:57:46.342Z,16.31
2019-03-10T22:58:46.285Z,16.23
2019-03-10T22:59:46.218Z,16.21
2019-03-10T23:00:46.144Z,16.14
2019-03-10T23:01:46.078Z,16.11
2019-03-10T23:02:45.992Z,16.14
2019-03-10T23:03:45.928Z,16.15
2019-03-10T23:04:45.853Z,16.24
2019-03-10T23:05:45.786Z,16.25
2019-03-10T23:06:45.732Z,16.30
2019-03-10T23:07:45.660Z,16.38
2019-03-10T23:08:45.581Z,16.31
2019-03-10T23:09:45.534Z,16.31
2019-03-10T23:10:45.473Z,16.30
2019-03-10T23:11:45.385Z,16.28
2019-03-10T23:12:45.319Z,16.17
2019-03-10T23:13:45.247Z,16.12
2019-03-10T23:14:45.166Z,16.04
2019-03-10T23:15:45.098Z,16.05
2019-03-10T23:16:45.050Z,16.07
2019-03-10T23:17:44.978Z,16.11
2019-03-10T23:18:44.890Z,16.14
2019-03-10T23:19:44.824Z,16.09
2019-03-10T23:20:44.757Z,16.11
2019-03-10T23:21:44.684Z,16.14
2019-03-10T23:22:44.635Z,16.15
2019-03-10T23:23:44.587Z,16.11
2019-03-10T23:24:44.481Z,16.09
2019-03-10T23:25:44.455Z,16.01
2019-03-10T23:26:44.348Z,15.96
2019-03-10T23:27:44.288Z,16.00
2019-03-10T23:28:44.216Z,15.93
2019-03-10T23:29:44.141Z,15.96
2019-03-10T23:30:44.062Z,15.96
2019-03-10T23:31:43.990Z,15.94
2019-03-10T23:32:43.938Z,16.09
2019-03-10T23:33:43.852Z,16.02
2019-03-10T23:34:43.794Z,15.94
2019-03-10T23:35:43.730Z,15.93
2019-03-10T23:36:43.655Z,15.89
2019-03-10T23:37:43.588Z,15.84
2019-03-10T23:38:43.506Z,15.93
2019-03-10T23:39:43.436Z,15.96
2019-03-10T23:40:43.381Z,15.90
2019-03-10T23:41:43.309Z,15.82
2019-03-10T23:42:43.231Z,15.80
2019-03-10T23:43:43.160Z,15.75
2019-03-10T23:44:43.093Z,15.71
2019-03-10T23:45:43.020Z,15.76
2019-03-10T23:46:42.967Z,15.68
2019-03-10T23:47:42.898Z,15.72
2019-03-10T23:48:42.825Z,15.69
2019-03-10T23:49:42.755Z,15.64
2019-03-10T23:50:42.674Z,15.60
2019-03-10T23:51:42.604Z,15.60
2019-03-10T23:52:42.536Z,15.53
2019-03-10T23:53:42.466Z,15.59
2019-03-10T23:54:42.411Z,15.53
2019-03-10T23:55:42.347Z,15.38
2019-03-10T23:56:42.258Z,15.49
2019-03-10T23:57:42.193Z,15.47
2019-03-10T23:58:42.131Z,15.51
2019-03-10T23:59:42.061Z,15.60
